sensor_id;sensor_type;location;lat;lon;timestamp;pressure;altitude;pressure_sealevel;temperature;humidity
73817;BME280;62146;53.232;-1.304;2022-08-06T00:00:18;101607.56;;;16.67;64.73
73817;BME280;62146;53.232;-1.304;2022-08-06T00:02:53;101611.88;;;16.68;64.43
73817;BME280;62146;53.232;-1.304;2022-08-06T00:05:20;101612.75;;;16.53;65.28
73817;BME280;62146;53.232;-1.304;2022-08-06T00:08:00;101612.75;;;16.53;65.46
73817;BME280;62146;53.232;-1.304;2022-08-06T00:10:27;101619.47;;;16.55;65.46
73817;BME280;62146;53.232;-1.304;2022-08-06T00:12:57;101611.19;;;16.57;65.43
73817;BME280;62146;53.232;-1.304;2022-08-06T00:15:26;101616.47;;;16.52;65.54
73817;BME280;62146;53.232;-1.304;2022-08-06T00:18:12;101619.16;;;16.52;65.47
73817;BME280;62146;53.232;-1.304;2022-08-06T00:20:39;101611.81;;;16.42;65.78
73817;BME280;62146;53.232;-1.304;2022-08-06T00:23:08;101614.09;;;16.34;66.22
73817;BME280;62146;53.232;-1.304;2022-08-06T00:25:43;101625.78;;;16.28;66.34
73817;BME280;62146;53.232;-1.304;2022-08-06T00:28:18;101615.41;;;16.32;66.17
73817;BME280;62146;53.232;-1.304;2022-08-06T00:30:46;101625.84;;;16.33;66.29
73817;BME280;62146;53.232;-1.304;2022-08-06T00:33:12;101624.50;;;16.31;66.44
73817;BME280;62146;53.232;-1.304;2022-08-06T00:35:40;101625.84;;;16.33;66.29
73817;BME280;62146;53.232;-1.304;2022-08-06T00:38:11;101629.47;;;16.22;66.72
73817;BME280;62146;53.232;-1.304;2022-08-06T00:40:40;101621.59;;;16.16;67.32
73817;BME280;62146;53.232;-1.304;2022-08-06T00:43:23;101624.44;;;16.09;67.56
73817;BME280;62146;53.232;-1.304;2022-08-06T00:45:50;101627.69;;;16.11;67.79
73817;BME280;62146;53.232;-1.304;2022-08-06T00:48:21;101628.63;;;16.06;68.08
73817;BME280;62146;53.232;-1.304;2022-08-06T00:51:07;101627.28;;;16.03;68.26
73817;BME280;62146;53.232;-1.304;2022-08-06T00:53:44;101623.38;;;16.10;68.45
73817;BME280;62146;53.232;-1.304;2022-08-06T00:56:13;101625.56;;;16.13;68.46
73817;BME280;62146;53.232;-1.304;2022-08-06T00:58:40;101620.22;;;16.13;68.18
73817;BME280;62146;53.232;-1.304;2022-08-06T01:01:09;101621.81;;;16.14;68.02
73817;BME280;62146;53.232;-1.304;2022-08-06T01:03:42;101623.63;;;16.09;68.38
73817;BME280;62146;53.232;-1.304;2022-08-06T01:06:18;101616.72;;;16.13;68.11
73817;BME280;62146;53.232;-1.304;2022-08-06T01:09:05;101618.91;;;16.00;68.66
73817;BME280;62146;53.232;-1.304;2022-08-06T01:11:33;101622.00;;;15.92;68.76
73817;BME280;62146;53.232;-1.304;2022-08-06T01:14:00;101625.97;;;15.89;68.89
73817;BME280;62146;53.232;-1.304;2022-08-06T01:16:40;101626.38;;;15.81;69.55
73817;BME280;62146;53.232;-1.304;2022-08-06T01:25:18;101638.69;;;15.82;69.73
73817;BME280;62146;53.232;-1.304;2022-08-06T01:28:20;101638.44;;;15.84;69.58
73817;BME280;62146;53.232;-1.304;2022-08-06T01:31:01;101641.44;;;15.71;70.08
73817;BME280;62146;53.232;-1.304;2022-08-06T01:33:50;101650.38;;;15.77;70.00
73817;BME280;62146;53.232;-1.304;2022-08-06T01:36:33;101648.19;;;15.90;69.54
73817;BME280;62146;53.232;-1.304;2022-08-06T01:39:07;101645.66;;;15.83;69.70
73817;BME280;62146;53.232;-1.304;2022-08-06T01:41:49;101643.72;;;15.79;69.86
73817;BME280;62146;53.232;-1.304;2022-08-06T01:44:30;101638.50;;;15.56;70.76
73817;BME280;62146;53.232;-1.304;2022-08-06T01:47:02;101643.22;;;15.66;70.69
73817;BME280;62146;53.232;-1.304;2022-08-06T01:49:33;101648.47;;;15.61;71.16
73817;BME280;62146;53.232;-1.304;2022-08-06T01:52:23;101644.66;;;15.57;71.28
73817;BME280;62146;53.232;-1.304;2022-08-06T01:54:57;101643.03;;;15.56;71.19
73817;BME280;62146;53.232;-1.304;2022-08-06T01:57:26;101636.41;;;15.58;71.25
73817;BME280;62146;53.232;-1.304;2022-08-06T02:00:14;101634.22;;;15.55;71.51
73817;BME280;62146;53.232;-1.304;2022-08-06T02:02:42;101641.09;;;15.52;71.54
73817;BME280;62146;53.232;-1.304;2022-08-06T02:05:11;101629.34;;;15.53;71.74
73817;BME280;62146;53.232;-1.304;2022-08-06T02:07:41;101644.50;;;15.47;71.86
73817;BME280;62146;53.232;-1.304;2022-08-06T02:10:30;101634.34;;;15.49;72.00
73817;BME280;62146;53.232;-1.304;2022-08-06T02:13:03;101634.59;;;15.48;72.04
73817;BME280;62146;53.232;-1.304;2022-08-06T02:15:34;101638.47;;;15.40;72.35
73817;BME280;62146;53.232;-1.304;2022-08-06T02:18:23;101646.25;;;15.42;72.52
73817;BME280;62146;53.232;-1.304;2022-08-06T02:21:22;101648.22;;;15.46;72.50
73817;BME280;62146;53.232;-1.304;2022-08-06T02:24:00;101651.22;;;15.50;72.00
73817;BME280;62146;53.232;-1.304;2022-08-06T02:26:29;101656.13;;;15.41;72.36
73817;BME280;62146;53.232;-1.304;2022-08-06T02:29:00;101654.19;;;15.37;72.45
73817;BME280;62146;53.232;-1.304;2022-08-06T02:31:27;101654.78;;;15.39;72.23
73817;BME280;62146;53.232;-1.304;2022-08-06T02:34:03;101652.91;;;15.39;72.39
73817;BME280;62146;53.232;-1.304;2022-08-06T02:36:42;101643.41;;;15.32;72.92
73817;BME280;62146;53.232;-1.304;2022-08-06T02:39:25;101651.19;;;15.33;72.65
73817;BME280;62146;53.232;-1.304;2022-08-06T02:42:19;101646.56;;;15.29;72.92
73817;BME280;62146;53.232;-1.304;2022-08-06T02:45:02;101642.16;;;15.23;73.50
73817;BME280;62146;53.232;-1.304;2022-08-06T02:47:33;101643.47;;;15.21;73.76
73817;BME280;62146;53.232;-1.304;2022-08-06T02:50:27;101644.91;;;15.12;73.88
73817;BME280;62146;53.232;-1.304;2022-08-06T02:53:02;101644.75;;;15.18;73.63
73817;BME280;62146;53.232;-1.304;2022-08-06T02:55:44;101642.66;;;15.20;73.29
73817;BME280;62146;53.232;-1.304;2022-08-06T02:58:23;101643.34;;;15.27;73.00
73817;BME280;62146;53.232;-1.304;2022-08-06T03:01:04;101641.69;;;15.26;72.95
73817;BME280;62146;53.232;-1.304;2022-08-06T03:03:35;101645.56;;;15.19;73.20
73817;BME280;62146;53.232;-1.304;2022-08-06T03:06:20;101638.84;;;15.16;73.72
73817;BME280;62146;53.232;-1.304;2022-08-06T03:08:54;101645.13;;;15.10;73.85
73817;BME280;62146;53.232;-1.304;2022-08-06T03:11:23;101644.41;;;15.03;74.01
73817;BME280;62146;53.232;-1.304;2022-08-06T03:13:50;101645.22;;;15.04;73.98
73817;BME280;62146;53.232;-1.304;2022-08-06T03:16:18;101640.25;;;14.96;74.15
73817;BME280;62146;53.232;-1.304;2022-08-06T03:18:51;101641.44;;;14.89;74.57
73817;BME280;62146;53.232;-1.304;2022-08-06T03:21:41;101651.91;;;14.90;74.37
73817;BME280;62146;53.232;-1.304;2022-08-06T03:24:23;101652.47;;;14.92;74.32
73817;BME280;62146;53.232;-1.304;2022-08-06T03:26:56;101654.34;;;14.92;74.45
73817;BME280;62146;53.232;-1.304;2022-08-06T03:29:25;101650.97;;;14.85;74.55
73817;BME280;62146;53.232;-1.304;2022-08-06T03:31:53;101655.84;;;14.88;74.86
73817;BME280;62146;53.232;-1.304;2022-08-06T03:34:39;101651.19;;;14.95;74.15
73817;BME280;62146;53.232;-1.304;2022-08-06T03:37:08;101655.16;;;14.81;74.58
73817;BME280;62146;53.232;-1.304;2022-08-06T03:39:43;101660.28;;;14.82;74.64
73817;BME280;62146;53.232;-1.304;2022-08-06T03:42:19;101664.84;;;14.82;75.02
73817;BME280;62146;53.232;-1.304;2022-08-06T03:44:46;101668.34;;;14.71;75.63
73817;BME280;62146;53.232;-1.304;2022-08-06T03:47:19;101664.34;;;14.85;75.37
73817;BME280;62146;53.232;-1.304;2022-08-06T03:50:11;101674.09;;;14.91;75.12
73817;BME280;62146;53.232;-1.304;2022-08-06T03:53:06;101666.09;;;14.79;75.68
73817;BME280;62146;53.232;-1.304;2022-08-06T03:55:37;101668.06;;;14.84;75.35
73817;BME280;62146;53.232;-1.304;2022-08-06T03:58:09;101669.25;;;14.76;75.60
73817;BME280;62146;53.232;-1.304;2022-08-06T04:00:42;101677.59;;;14.80;75.96
73817;BME280;62146;53.232;-1.304;2022-08-06T04:03:12;101678.41;;;14.80;75.74
73817;BME280;62146;53.232;-1.304;2022-08-06T04:05:40;101668.34;;;14.71;76.14
73817;BME280;62146;53.232;-1.304;2022-08-06T04:08:14;101671.47;;;14.68;76.29
73817;BME280;62146;53.232;-1.304;2022-08-06T04:10:46;101672.53;;;14.67;76.43
73817;BME280;62146;53.232;-1.304;2022-08-06T04:13:25;101680.09;;;14.59;76.62
73817;BME280;62146;53.232;-1.304;2022-08-06T04:16:13;101685.16;;;14.72;76.33
73817;BME280;62146;53.232;-1.304;2022-08-06T04:18:56;101689.25;;;14.74;76.39
73817;BME280;62146;53.232;-1.304;2022-08-06T04:21:24;101690.03;;;14.74;76.21
73817;BME280;62146;53.232;-1.304;2022-08-06T04:24:12;101694.56;;;14.74;76.04
73817;BME280;62146;53.232;-1.304;2022-08-06T04:26:43;101690.41;;;14.67;76.01
73817;BME280;62146;53.232;-1.304;2022-08-06T04:29:12;101691.69;;;14.64;75.85
73817;BME280;62146;53.232;-1.304;2022-08-06T04:31:43;101689.25;;;14.51;76.44
73817;BME280;62146;53.232;-1.304;2022-08-06T04:34:31;101681.72;;;14.48;77.25
73817;BME280;62146;53.232;-1.304;2022-08-06T04:37:19;101693.09;;;14.55;77.34
73817;BME280;62146;53.232;-1.304;2022-08-06T04:39:46;101689.00;;;14.64;77.07
73817;BME280;62146;53.232;-1.304;2022-08-06T04:42:17;101683.91;;;14.63;76.82
73817;BME280;62146;53.232;-1.304;2022-08-06T04:44:45;101682.50;;;14.60;76.87
73817;BME280;62146;53.232;-1.304;2022-08-06T04:47:28;101689.25;;;14.51;77.15
73817;BME280;62146;53.232;-1.304;2022-08-06T04:50:12;101685.28;;;14.43;77.53
73817;BME280;62146;53.232;-1.304;2022-08-06T04:52:43;101688.78;;;14.43;77.72
73817;BME280;62146;53.232;-1.304;2022-08-06T04:55:17;101683.34;;;14.38;77.95
73817;BME280;62146;53.232;-1.304;2022-08-06T04:57:59;101689.00;;;14.53;77.58
73817;BME280;62146;53.232;-1.304;2022-08-06T05:00:39;101699.00;;;14.57;77.70
73817;BME280;62146;53.232;-1.304;2022-08-06T05:03:28;101701.19;;;14.60;77.60
73817;BME280;62146;53.232;-1.304;2022-08-06T05:09:08;101707.09;;;14.73;77.13
73817;BME280;62146;53.232;-1.304;2022-08-06T05:11:56;101711.06;;;14.71;77.18
73817;BME280;62146;53.232;-1.304;2022-08-06T05:14:48;101704.47;;;14.62;77.35
73817;BME280;62146;53.232;-1.304;2022-08-06T05:17:20;101696.44;;;14.62;77.64
73817;BME280;62146;53.232;-1.304;2022-08-06T05:20:16;101705.03;;;14.64;77.68
73817;BME280;62146;53.232;-1.304;2022-08-06T05:22:59;101708.28;;;14.66;77.82
73817;BME280;62146;53.232;-1.304;2022-08-06T05:25:31;101717.81;;;14.62;78.07
73817;BME280;62146;53.232;-1.304;2022-08-06T05:28:03;101709.91;;;14.67;78.13
73817;BME280;62146;53.232;-1.304;2022-08-06T05:30:48;101717.56;;;14.75;77.79
73817;BME280;62146;53.232;-1.304;2022-08-06T05:33:26;101716.16;;;14.84;77.48
73817;BME280;62146;53.232;-1.304;2022-08-06T05:35:56;101717.91;;;14.78;77.73
73817;BME280;62146;53.232;-1.304;2022-08-06T05:38:32;101722.66;;;14.76;77.52
73817;BME280;62146;53.232;-1.304;2022-08-06T05:41:09;101724.41;;;14.82;77.49
73817;BME280;62146;53.232;-1.304;2022-08-06T05:43:38;101729.41;;;14.79;77.61
73817;BME280;62146;53.232;-1.304;2022-08-06T05:46:26;101735.66;;;14.84;77.38
73817;BME280;62146;53.232;-1.304;2022-08-06T05:49:08;101733.31;;;14.88;77.21
73817;BME280;62146;53.232;-1.304;2022-08-06T05:52:03;101739.94;;;14.97;77.05
73817;BME280;62146;53.232;-1.304;2022-08-06T06:00:15;101731.78;;;15.03;77.61
73817;BME280;62146;53.232;-1.304;2022-08-06T06:03:05;101735.66;;;15.07;77.67
73817;BME280;62146;53.232;-1.304;2022-08-06T06:05:33;101733.78;;;15.07;77.52
73817;BME280;62146;53.232;-1.304;2022-08-06T06:08:21;101742.56;;;15.19;77.28
73817;BME280;62146;53.232;-1.304;2022-08-06T06:11:06;101752.09;;;15.27;76.76
73817;BME280;62146;53.232;-1.304;2022-08-06T06:13:40;101758.50;;;15.26;76.68
73817;BME280;62146;53.232;-1.304;2022-08-06T06:22:19;101758.22;;;15.38;76.73
73817;BME280;62146;53.232;-1.304;2022-08-06T06:24:59;101753.06;;;15.48;76.24
73817;BME280;62146;53.232;-1.304;2022-08-06T06:41:19;101761.44;;;15.95;75.20
73817;BME280;62146;53.232;-1.304;2022-08-06T06:46:49;101758.28;;;16.09;74.69
73817;BME280;62146;53.232;-1.304;2022-08-06T06:49:39;101759.59;;;16.23;74.36
73817;BME280;62146;53.232;-1.304;2022-08-06T06:52:38;101765.00;;;16.28;74.26
73817;BME280;62146;53.232;-1.304;2022-08-06T06:55:29;101761.84;;;16.31;74.41
73817;BME280;62146;53.232;-1.304;2022-08-06T06:58:21;101755.91;;;16.29;75.09
73817;BME280;62146;53.232;-1.304;2022-08-06T07:00:52;101761.44;;;16.39;74.27
73817;BME280;62146;53.232;-1.304;2022-08-06T07:03:41;101774.50;;;16.52;74.16
73817;BME280;62146;53.232;-1.304;2022-08-06T07:06:10;101766.41;;;16.47;74.33
73817;BME280;62146;53.232;-1.304;2022-08-06T07:08:58;101772.81;;;16.62;73.51
73817;BME280;62146;53.232;-1.304;2022-08-06T07:11:43;101773.69;;;16.67;73.39
73817;BME280;62146;53.232;-1.304;2022-08-06T07:14:31;101767.78;;;16.87;72.47
73817;BME280;62146;53.232;-1.304;2022-08-06T07:17:00;101773.31;;;16.96;72.02
73817;BME280;62146;53.232;-1.304;2022-08-06T07:19:49;101773.69;;;17.05;72.07
73817;BME280;62146;53.232;-1.304;2022-08-06T07:22:17;101766.81;;;17.09;71.90
73817;BME280;62146;53.232;-1.304;2022-08-06T07:24:44;101765.66;;;17.05;72.01
73817;BME280;62146;53.232;-1.304;2022-08-06T07:27:12;101770.25;;;16.88;73.25
73817;BME280;62146;53.232;-1.304;2022-08-06T07:30:00;101772.88;;;17.04;71.76
73817;BME280;62146;53.232;-1.304;2022-08-06T07:32:28;101773.28;;;17.13;70.70
73817;BME280;62146;53.232;-1.304;2022-08-06T07:34:59;101766.75;;;17.25;70.14
73817;BME280;62146;53.232;-1.304;2022-08-06T07:37:26;101769.19;;;17.26;69.68
73817;BME280;62146;53.232;-1.304;2022-08-06T07:40:06;101779.84;;;17.64;73.43
73817;BME280;62146;53.232;-1.304;2022-08-06T07:42:36;101777.88;;;17.80;73.19
73817;BME280;62146;53.232;-1.304;2022-08-06T07:45:06;101777.22;;;17.95;72.49
73817;BME280;62146;53.232;-1.304;2022-08-06T07:47:42;101792.66;;;18.04;69.64
73817;BME280;62146;53.232;-1.304;2022-08-06T07:50:22;101779.63;;;18.17;70.52
73817;BME280;62146;53.232;-1.304;2022-08-06T07:52:55;101784.84;;;18.28;69.76
73817;BME280;62146;53.232;-1.304;2022-08-06T07:55:24;101788.81;;;18.21;67.03
73817;BME280;62146;53.232;-1.304;2022-08-06T07:58:07;101786.75;;;18.33;67.05
73817;BME280;62146;53.232;-1.304;2022-08-06T08:00:35;101780.88;;;18.36;67.86
73817;BME280;62146;53.232;-1.304;2022-08-06T08:03:05;101781.69;;;18.36;65.44
73817;BME280;62146;53.232;-1.304;2022-08-06T08:06:25;101792.00;;;18.49;64.90
73817;BME280;62146;53.232;-1.304;2022-08-06T08:08:53;101788.59;;;18.58;65.52
73817;BME280;62146;53.232;-1.304;2022-08-06T08:11:23;101792.38;;;18.62;62.67
73817;BME280;62146;53.232;-1.304;2022-08-06T08:14:12;101792.13;;;18.69;63.86
73817;BME280;62146;53.232;-1.304;2022-08-06T08:16:40;101786.38;;;18.86;63.38
73817;BME280;62146;53.232;-1.304;2022-08-06T08:21:51;101788.38;;;19.01;62.95
73817;BME280;62146;53.232;-1.304;2022-08-06T08:24:19;101783.75;;;18.96;61.49
73817;BME280;62146;53.232;-1.304;2022-08-06T08:26:45;101788.97;;;19.12;61.56
73817;BME280;62146;53.232;-1.304;2022-08-06T08:29:32;101790.50;;;18.99;60.25
73817;BME280;62146;53.232;-1.304;2022-08-06T08:32:00;101786.06;;;19.24;60.56
73817;BME280;62146;53.232;-1.304;2022-08-06T08:34:30;101782.91;;;19.41;60.97
73817;BME280;62146;53.232;-1.304;2022-08-06T08:36:59;101780.28;;;19.61;60.73
73817;BME280;62146;53.232;-1.304;2022-08-06T08:39:25;101782.16;;;19.60;58.99
73817;BME280;62146;53.232;-1.304;2022-08-06T08:42:04;101780.25;;;19.51;58.93
73817;BME280;62146;53.232;-1.304;2022-08-06T08:44:44;101785.25;;;19.88;57.77
73817;BME280;62146;53.232;-1.304;2022-08-06T08:47:13;101771.56;;;20.34;57.14
73817;BME280;62146;53.232;-1.304;2022-08-06T08:49:51;101774.00;;;20.65;57.52
73817;BME280;62146;53.232;-1.304;2022-08-06T08:52:23;101778.31;;;20.41;56.40
73817;BME280;62146;53.232;-1.304;2022-08-06T08:55:01;101769.66;;;20.20;58.07
73817;BME280;62146;53.232;-1.304;2022-08-06T08:57:49;101772.09;;;20.46;55.07
73817;BME280;62146;53.232;-1.304;2022-08-06T09:00:37;101765.78;;;21.19;54.48
73817;BME280;62146;53.232;-1.304;2022-08-06T09:03:06;101773.94;;;21.67;53.54
73817;BME280;62146;53.232;-1.304;2022-08-06T09:05:37;101768.91;;;22.03;52.63
73817;BME280;62146;53.232;-1.304;2022-08-06T09:08:13;101771.75;;;21.74;52.79
73817;BME280;62146;53.232;-1.304;2022-08-06T09:11:00;101760.81;;;21.50;53.04
73817;BME280;62146;53.232;-1.304;2022-08-06T09:13:37;101768.91;;;21.50;53.68
73817;BME280;62146;53.232;-1.304;2022-08-06T09:16:17;101775.53;;;21.10;54.09
73817;BME280;62146;53.232;-1.304;2022-08-06T09:18:58;101771.84;;;20.57;53.76
73817;BME280;62146;53.232;-1.304;2022-08-06T09:21:25;101781.47;;;19.94;54.22
73817;BME280;62146;53.232;-1.304;2022-08-06T09:23:54;101777.06;;;21.36;53.40
73817;BME280;62146;53.232;-1.304;2022-08-06T09:26:23;101772.31;;;21.75;51.12
73817;BME280;62146;53.232;-1.304;2022-08-06T09:29:20;101771.31;;;22.04;49.18
73817;BME280;62146;53.232;-1.304;2022-08-06T09:31:57;101776.28;;;21.88;48.67
73817;BME280;62146;53.232;-1.304;2022-08-06T09:34:35;101775.63;;;22.10;49.20
73817;BME280;62146;53.232;-1.304;2022-08-06T09:37:07;101770.56;;;21.94;49.74
73817;BME280;62146;53.232;-1.304;2022-08-06T09:39:38;101779.03;;;21.11;51.95
73817;BME280;62146;53.232;-1.304;2022-08-06T09:42:43;101794.47;;;20.86;51.93
73817;BME280;62146;53.232;-1.304;2022-08-06T09:45:12;101794.47;;;20.86;51.95
73817;BME280;62146;53.232;-1.304;2022-08-06T09:47:44;101786.97;;;20.68;51.59
73817;BME280;62146;53.232;-1.304;2022-08-06T09:50:43;101788.88;;;21.54;51.29
73817;BME280;62146;53.232;-1.304;2022-08-06T09:53:13;101782.47;;;22.31;49.37
73817;BME280;62146;53.232;-1.304;2022-08-06T09:55:46;101784.34;;;21.98;47.64
73817;BME280;62146;53.232;-1.304;2022-08-06T09:58:25;101776.56;;;22.62;46.76
73817;BME280;62146;53.232;-1.304;2022-08-06T10:00:52;101780.19;;;22.15;46.43
73817;BME280;62146;53.232;-1.304;2022-08-06T10:03:19;101772.69;;;22.68;46.30
73817;BME280;62146;53.232;-1.304;2022-08-06T10:06:12;101785.06;;;22.46;46.08
73817;BME280;62146;53.232;-1.304;2022-08-06T10:08:43;101782.41;;;21.55;47.79
73817;BME280;62146;53.232;-1.304;2022-08-06T10:11:40;101780.78;;;21.97;47.16
73817;BME280;62146;53.232;-1.304;2022-08-06T10:17:08;101783.09;;;22.89;45.51
73817;BME280;62146;53.232;-1.304;2022-08-06T10:19:40;101775.47;;;22.63;46.55
73817;BME280;62146;53.232;-1.304;2022-08-06T10:22:18;101787.31;;;22.34;47.48
73817;BME280;62146;53.232;-1.304;2022-08-06T10:24:50;101792.25;;;21.84;48.03
73817;BME280;62146;53.232;-1.304;2022-08-06T10:27:21;101782.06;;;22.14;47.73
73817;BME280;62146;53.232;-1.304;2022-08-06T10:29:54;101784.78;;;22.80;46.61
73817;BME280;62146;53.232;-1.304;2022-08-06T10:35:15;101782.28;;;23.11;43.99
73817;BME280;62146;53.232;-1.304;2022-08-06T10:37:50;101780.00;;;23.64;42.48
73817;BME280;62146;53.232;-1.304;2022-08-06T10:40:19;101781.81;;;23.92;42.41
73817;BME280;62146;53.232;-1.304;2022-08-06T10:42:58;101781.72;;;23.79;43.00
73817;BME280;62146;53.232;-1.304;2022-08-06T10:45:29;101782.63;;;23.05;43.98
73817;BME280;62146;53.232;-1.304;2022-08-06T10:48:15;101781.19;;;21.81;46.55
73817;BME280;62146;53.232;-1.304;2022-08-06T10:51:04;101780.66;;;22.22;46.82
73817;BME280;62146;53.232;-1.304;2022-08-06T10:53:40;101770.19;;;22.81;45.56
73817;BME280;62146;53.232;-1.304;2022-08-06T10:56:28;101774.22;;;22.18;45.89
73817;BME280;62146;53.232;-1.304;2022-08-06T10:59:02;101762.06;;;23.27;44.71
73817;BME280;62146;53.232;-1.304;2022-08-06T11:01:52;101757.78;;;23.86;42.73
73817;BME280;62146;53.232;-1.304;2022-08-06T11:04:35;101758.13;;;24.34;42.22
73817;BME280;62146;53.232;-1.304;2022-08-06T11:16:03;101763.03;;;22.29;46.40
73817;BME280;62146;53.232;-1.304;2022-08-06T11:18:30;101769.78;;;21.89;46.96
73817;BME280;62146;53.232;-1.304;2022-08-06T11:20:58;101759.47;;;22.33;45.83
73817;BME280;62146;53.232;-1.304;2022-08-06T11:23:29;101763.59;;;23.56;43.66
73817;BME280;62146;53.232;-1.304;2022-08-06T11:26:38;101752.41;;;24.35;42.75
73817;BME280;62146;53.232;-1.304;2022-08-06T11:29:11;101763.75;;;25.13;41.62
73817;BME280;62146;53.232;-1.304;2022-08-06T11:31:46;101755.78;;;24.27;42.22
73817;BME280;62146;53.232;-1.304;2022-08-06T11:34:40;101760.66;;;23.30;44.50
73817;BME280;62146;53.232;-1.304;2022-08-06T11:37:42;101758.81;;;22.79;45.80
73817;BME280;62146;53.232;-1.304;2022-08-06T11:41:01;101749.59;;;23.49;44.72
73817;BME280;62146;53.232;-1.304;2022-08-06T11:51:53;101752.53;;;23.07;42.94
73817;BME280;62146;53.232;-1.304;2022-08-06T12:00:06;101725.09;;;25.29;40.23
73817;BME280;62146;53.232;-1.304;2022-08-06T12:07:44;101742.66;;;23.98;42.76
73817;BME280;62146;53.232;-1.304;2022-08-06T12:10:17;101738.97;;;25.54;40.96
73817;BME280;62146;53.232;-1.304;2022-08-06T12:12:54;101741.16;;;26.36;39.52
73817;BME280;62146;53.232;-1.304;2022-08-06T12:18:12;101738.06;;;24.93;41.74
73817;BME280;62146;53.232;-1.304;2022-08-06T12:20:55;101732.88;;;24.65;42.26
73817;BME280;62146;53.232;-1.304;2022-08-06T12:23:22;101734.75;;;24.19;42.50
73817;BME280;62146;53.232;-1.304;2022-08-06T12:26:10;101724.84;;;24.28;42.31
73817;BME280;62146;53.232;-1.304;2022-08-06T12:28:37;101731.06;;;24.29;43.04
73817;BME280;62146;53.232;-1.304;2022-08-06T12:31:04;101731.38;;;24.72;43.21
73817;BME280;62146;53.232;-1.304;2022-08-06T12:33:50;101729.72;;;24.89;43.06
73817;BME280;62146;53.232;-1.304;2022-08-06T12:36:17;101735.34;;;24.79;42.82
73817;BME280;62146;53.232;-1.304;2022-08-06T12:39:02;101733.53;;;24.88;42.93
73817;BME280;62146;53.232;-1.304;2022-08-06T12:41:34;101734.97;;;24.99;42.26
73817;BME280;62146;53.232;-1.304;2022-08-06T12:44:13;101731.22;;;25.35;42.06
73817;BME280;62146;53.232;-1.304;2022-08-06T12:47:11;101736.75;;;25.91;41.16
73817;BME280;62146;53.232;-1.304;2022-08-06T12:49:39;101716.28;;;26.29;40.59
73817;BME280;62146;53.232;-1.304;2022-08-06T12:52:16;101721.34;;;26.43;40.59
73817;BME280;62146;53.232;-1.304;2022-08-06T12:54:44;101723.56;;;27.56;38.66
73817;BME280;62146;53.232;-1.304;2022-08-06T12:57:28;101716.50;;;28.55;37.71
73817;BME280;62146;53.232;-1.304;2022-08-06T13:00:17;101710.16;;;28.18;37.47
73817;BME280;62146;53.232;-1.304;2022-08-06T13:02:55;101719.06;;;27.52;38.06
73817;BME280;62146;53.232;-1.304;2022-08-06T13:05:24;101711.78;;;26.84;39.25
73817;BME280;62146;53.232;-1.304;2022-08-06T13:07:57;101709.44;;;26.99;39.86
73817;BME280;62146;53.232;-1.304;2022-08-06T13:10:25;101711.63;;;27.19;39.96
73817;BME280;62146;53.232;-1.304;2022-08-06T13:13:03;101722.28;;;26.39;40.15
73817;BME280;62146;53.232;-1.304;2022-08-06T13:16:07;101710.22;;;26.10;41.02
73817;BME280;62146;53.232;-1.304;2022-08-06T13:18:35;101716.28;;;26.07;41.88
73817;BME280;62146;53.232;-1.304;2022-08-06T13:21:19;101704.63;;;25.93;41.36
73817;BME280;62146;53.232;-1.304;2022-08-06T13:23:48;101710.75;;;25.64;41.82
73817;BME280;62146;53.232;-1.304;2022-08-06T13:29:14;101709.78;;;25.20;42.95
73817;BME280;62146;53.232;-1.304;2022-08-06T13:32:10;101701.06;;;25.10;43.30
73817;BME280;62146;53.232;-1.304;2022-08-06T13:34:58;101698.09;;;25.46;42.37
73817;BME280;62146;53.232;-1.304;2022-08-06T13:37:51;101698.34;;;26.28;41.60
73817;BME280;62146;53.232;-1.304;2022-08-06T13:40:49;101706.00;;;26.77;41.55
73817;BME280;62146;53.232;-1.304;2022-08-06T13:43:52;101714.44;;;27.52;41.59
73817;BME280;62146;53.232;-1.304;2022-08-06T13:46:25;101708.66;;;27.07;41.12
73817;BME280;62146;53.232;-1.304;2022-08-06T13:48:59;101705.03;;;26.52;42.12
73817;BME280;62146;53.232;-1.304;2022-08-06T13:51:27;101699.41;;;26.48;41.79
73817;BME280;62146;53.232;-1.304;2022-08-06T13:54:02;101707.38;;;26.66;41.78
73817;BME280;62146;53.232;-1.304;2022-08-06T13:56:45;101715.28;;;26.25;42.37
73817;BME280;62146;53.232;-1.304;2022-08-06T13:59:18;101705.88;;;26.31;42.47
73817;BME280;62146;53.232;-1.304;2022-08-06T14:01:46;101703.41;;;26.72;42.03
73817;BME280;62146;53.232;-1.304;2022-08-06T14:04:14;101716.69;;;27.04;41.10
73817;BME280;62146;53.232;-1.304;2022-08-06T14:06:43;101708.97;;;26.97;41.00
73817;BME280;62146;53.232;-1.304;2022-08-06T14:09:13;101706.44;;;27.09;41.12
73817;BME280;62146;53.232;-1.304;2022-08-06T14:11:53;101702.31;;;27.92;40.40
73817;BME280;62146;53.232;-1.304;2022-08-06T14:14:23;101705.03;;;29.15;38.45
73817;BME280;62146;53.232;-1.304;2022-08-06T14:16:54;101698.50;;;29.77;37.75
73817;BME280;62146;53.232;-1.304;2022-08-06T14:19:21;101696.06;;;29.35;37.24
73817;BME280;62146;53.232;-1.304;2022-08-06T14:22:08;101691.50;;;28.45;38.57
73817;BME280;62146;53.232;-1.304;2022-08-06T14:24:35;101696.72;;;29.32;37.96
73817;BME280;62146;53.232;-1.304;2022-08-06T14:27:05;101699.75;;;30.19;36.40
73817;BME280;62146;53.232;-1.304;2022-08-06T14:29:41;101687.81;;;30.68;36.51
73817;BME280;62146;53.232;-1.304;2022-08-06T14:32:28;101695.13;;;30.99;36.11
73817;BME280;62146;53.232;-1.304;2022-08-06T14:34:54;101678.25;;;30.85;35.93
73817;BME280;62146;53.232;-1.304;2022-08-06T14:37:22;101674.81;;;31.00;35.27
73817;BME280;62146;53.232;-1.304;2022-08-06T14:40:10;101684.63;;;31.13;35.54
73817;BME280;62146;53.232;-1.304;2022-08-06T14:42:57;101674.78;;;30.88;34.96
73817;BME280;62146;53.232;-1.304;2022-08-06T14:45:42;101671.97;;;30.97;34.73
73817;BME280;62146;53.232;-1.304;2022-08-06T14:48:08;101676.31;;;30.86;35.05
73817;BME280;62146;53.232;-1.304;2022-08-06T14:50:37;101683.09;;;29.24;36.58